sensor_id;sensor_type;location;lat;lon;timestamp;P1;durP1;ratioP1;P2;durP2;ratioP2
52414;SDS011;38340;52.964;6.086;2023-03-21T00:00:16;162.88;;;41.28;;
52414;SDS011;38340;52.964;6.086;2023-03-21T00:02:42;155.60;;;43.17;;
52414;SDS011;38340;52.964;6.086;2023-03-21T00:05:08;153.73;;;39.65;;
52414;SDS011;38340;52.964;6.086;2023-03-21T00:07:33;150.38;;;41.67;;
52414;SDS011;38340;52.964;6.086;2023-03-21T00:09:59;134.80;;;38.58;;
52414;SDS011;38340;52.964;6.086;2023-03-21T00:12:25;120.30;;;35.75;;
52414;SDS011;38340;52.964;6.086;2023-03-21T00:14:50;146.02;;;38.75;;
52414;SDS011;38340;52.964;6.086;2023-03-21T00:17:18;128.02;;;35.70;;
52414;SDS011;38340;52.964;6.086;2023-03-21T00:19:46;136.38;;;37.13;;
52414;SDS011;38340;52.964;6.086;2023-03-21T00:22:13;108.00;;;33.55;;
52414;SDS011;38340;52.964;6.086;2023-03-21T00:24:39;124.53;;;36.97;;
52414;SDS011;38340;52.964;6.086;2023-03-21T00:27:05;126.25;;;36.38;;
52414;SDS011;38340;52.964;6.086;2023-03-21T00:29:31;115.15;;;36.15;;
52414;SDS011;38340;52.964;6.086;2023-03-21T00:31:57;93.70;;;31.40;;
52414;SDS011;38340;52.964;6.086;2023-03-21T00:34:23;91.57;;;31.58;;
52414;SDS011;38340;52.964;6.086;2023-03-21T00:36:48;97.78;;;32.88;;
52414;SDS011;38340;52.964;6.086;2023-03-21T00:39:14;91.07;;;32.67;;
52414;SDS011;38340;52.964;6.086;2023-03-21T00:41:40;83.38;;;33.25;;
52414;SDS011;38340;52.964;6.086;2023-03-21T00:44:06;87.50;;;30.85;;
52414;SDS011;38340;52.964;6.086;2023-03-21T00:46:32;91.15;;;32.92;;
52414;SDS011;38340;52.964;6.086;2023-03-21T00:48:59;75.00;;;31.65;;
52414;SDS011;38340;52.964;6.086;2023-03-21T00:51:25;84.40;;;31.90;;
52414;SDS011;38340;52.964;6.086;2023-03-21T00:53:54;68.53;;;29.42;;
52414;SDS011;38340;52.964;6.086;2023-03-21T00:56:22;75.97;;;30.40;;
52414;SDS011;38340;52.964;6.086;2023-03-21T00:58:47;88.32;;;31.13;;
52414;SDS011;38340;52.964;6.086;2023-03-21T01:01:13;70.75;;;32.75;;
52414;SDS011;38340;52.964;6.086;2023-03-21T01:03:39;72.47;;;29.35;;
52414;SDS011;38340;52.964;6.086;2023-03-21T01:06:14;72.70;;;29.77;;
52414;SDS011;38340;52.964;6.086;2023-03-21T01:08:43;69.88;;;30.92;;
52414;SDS011;38340;52.964;6.086;2023-03-21T01:11:12;61.10;;;31.13;;
52414;SDS011;38340;52.964;6.086;2023-03-21T01:13:39;62.47;;;29.92;;
52414;SDS011;38340;52.964;6.086;2023-03-21T01:16:06;62.38;;;30.42;;
52414;SDS011;38340;52.964;6.086;2023-03-21T01:18:33;60.92;;;28.48;;
52414;SDS011;38340;52.964;6.086;2023-03-21T01:21:00;54.65;;;29.52;;
52414;SDS011;38340;52.964;6.086;2023-03-21T01:23:26;57.33;;;30.25;;
52414;SDS011;38340;52.964;6.086;2023-03-21T01:25:53;57.85;;;29.08;;
52414;SDS011;38340;52.964;6.086;2023-03-21T01:28:20;63.78;;;31.65;;
52414;SDS011;38340;52.964;6.086;2023-03-21T01:30:48;61.25;;;28.83;;
52414;SDS011;38340;52.964;6.086;2023-03-21T01:33:15;60.03;;;29.60;;
52414;SDS011;38340;52.964;6.086;2023-03-21T01:35:42;61.00;;;28.60;;
52414;SDS011;38340;52.964;6.086;2023-03-21T01:38:07;53.17;;;28.20;;
52414;SDS011;38340;52.964;6.086;2023-03-21T01:40:34;55.53;;;28.35;;
52414;SDS011;38340;52.964;6.086;2023-03-21T01:43:00;62.35;;;30.35;;
52414;SDS011;38340;52.964;6.086;2023-03-21T01:48:29;53.83;;;27.17;;
52414;SDS011;38340;52.964;6.086;2023-03-21T01:50:56;54.40;;;31.00;;
52414;SDS011;38340;52.964;6.086;2023-03-21T01:53:23;53.03;;;27.92;;
52414;SDS011;38340;52.964;6.086;2023-03-21T01:55:58;53.55;;;27.92;;
52414;SDS011;38340;52.964;6.086;2023-03-21T01:58:28;54.22;;;27.52;;
52414;SDS011;38340;52.964;6.086;2023-03-21T02:00:54;53.50;;;27.25;;
52414;SDS011;38340;52.964;6.086;2023-03-21T02:03:20;53.47;;;28.98;;
52414;SDS011;38340;52.964;6.086;2023-03-21T02:08:23;50.33;;;28.65;;
52414;SDS011;38340;52.964;6.086;2023-03-21T02:10:49;47.33;;;26.92;;
52414;SDS011;38340;52.964;6.086;2023-03-21T02:13:15;55.33;;;26.75;;
52414;SDS011;38340;52.964;6.086;2023-03-21T02:15:46;49.63;;;26.73;;
52414;SDS011;38340;52.964;6.086;2023-03-21T02:18:23;49.45;;;27.23;;
52414;SDS011;38340;52.964;6.086;2023-03-21T02:21:08;49.13;;;26.92;;
52414;SDS011;38340;52.964;6.086;2023-03-21T02:23:45;53.50;;;26.73;;
52414;SDS011;38340;52.964;6.086;2023-03-21T02:34:20;44.40;;;23.35;;
52414;SDS011;38340;52.964;6.086;2023-03-21T02:47:48;38.13;;;21.38;;
52414;SDS011;38340;52.964;6.086;2023-03-21T02:52:47;43.70;;;23.30;;
52414;SDS011;38340;52.964;6.086;2023-03-21T02:55:24;43.42;;;20.58;;
52414;SDS011;38340;52.964;6.086;2023-03-21T02:57:52;39.85;;;22.77;;
52414;SDS011;38340;52.964;6.086;2023-03-21T03:00:21;40.05;;;21.45;;
52414;SDS011;38340;52.964;6.086;2023-03-21T03:02:49;35.72;;;20.48;;
52414;SDS011;38340;52.964;6.086;2023-03-21T03:05:22;39.45;;;21.73;;
52414;SDS011;38340;52.964;6.086;2023-03-21T03:10:26;44.30;;;22.58;;
52414;SDS011;38340;52.964;6.086;2023-03-21T03:16:10;44.70;;;20.23;;
52414;SDS011;38340;52.964;6.086;2023-03-21T03:18:50;41.28;;;20.55;;
52414;SDS011;38340;52.964;6.086;2023-03-21T03:26:47;43.45;;;21.73;;
52414;SDS011;38340;52.964;6.086;2023-03-21T03:29:18;40.58;;;20.83;;
52414;SDS011;38340;52.964;6.086;2023-03-21T03:34:16;49.10;;;23.35;;
52414;SDS011;38340;52.964;6.086;2023-03-21T03:36:45;39.63;;;22.00;;
52414;SDS011;38340;52.964;6.086;2023-03-21T03:39:15;47.20;;;22.92;;
52414;SDS011;38340;52.964;6.086;2023-03-21T03:41:50;45.33;;;21.75;;
52414;SDS011;38340;52.964;6.086;2023-03-21T03:44:21;41.40;;;21.40;;
52414;SDS011;38340;52.964;6.086;2023-03-21T03:46:52;49.92;;;23.33;;
52414;SDS011;38340;52.964;6.086;2023-03-21T03:49:26;66.28;;;25.42;;
52414;SDS011;38340;52.964;6.086;2023-03-21T03:52:03;50.03;;;23.70;;
52414;SDS011;38340;52.964;6.086;2023-03-21T03:54:41;49.17;;;24.08;;
52414;SDS011;38340;52.964;6.086;2023-03-21T03:57:08;50.55;;;24.40;;
52414;SDS011;38340;52.964;6.086;2023-03-21T03:59:38;47.60;;;24.77;;
52414;SDS011;38340;52.964;6.086;2023-03-21T04:02:05;49.95;;;24.23;;
52414;SDS011;38340;52.964;6.086;2023-03-21T04:04:31;49.95;;;23.17;;
52414;SDS011;38340;52.964;6.086;2023-03-21T04:06:58;49.67;;;25.25;;
52414;SDS011;38340;52.964;6.086;2023-03-21T04:09:24;54.58;;;25.73;;
52414;SDS011;38340;52.964;6.086;2023-03-21T04:11:52;47.15;;;24.65;;
52414;SDS011;38340;52.964;6.086;2023-03-21T04:14:18;50.78;;;25.60;;
52414;SDS011;38340;52.964;6.086;2023-03-21T04:16:44;52.70;;;26.35;;
52414;SDS011;38340;52.964;6.086;2023-03-21T04:19:10;57.25;;;25.98;;
52414;SDS011;38340;52.964;6.086;2023-03-21T04:21:36;59.97;;;26.40;;
52414;SDS011;38340;52.964;6.086;2023-03-21T04:24:02;53.75;;;26.08;;
52414;SDS011;38340;52.964;6.086;2023-03-21T04:26:29;56.30;;;26.55;;
52414;SDS011;38340;52.964;6.086;2023-03-21T04:28:57;48.28;;;25.15;;
52414;SDS011;38340;52.964;6.086;2023-03-21T04:31:30;53.00;;;25.90;;
52414;SDS011;38340;52.964;6.086;2023-03-21T04:33:58;225.13;;;40.80;;
52414;SDS011;38340;52.964;6.086;2023-03-21T04:36:25;62.28;;;27.38;;
52414;SDS011;38340;52.964;6.086;2023-03-21T04:38:54;53.83;;;26.17;;
52414;SDS011;38340;52.964;6.086;2023-03-21T04:41:28;64.78;;;27.10;;
52414;SDS011;38340;52.964;6.086;2023-03-21T04:43:54;58.05;;;26.23;;
52414;SDS011;38340;52.964;6.086;2023-03-21T04:46:20;58.35;;;26.55;;
52414;SDS011;38340;52.964;6.086;2023-03-21T04:48:46;55.85;;;26.27;;
52414;SDS011;38340;52.964;6.086;2023-03-21T04:51:13;52.17;;;25.70;;
52414;SDS011;38340;52.964;6.086;2023-03-21T04:53:39;51.13;;;25.25;;
52414;SDS011;38340;52.964;6.086;2023-03-21T04:56:09;47.65;;;24.15;;
52414;SDS011;38340;52.964;6.086;2023-03-21T04:58:35;54.63;;;26.35;;
52414;SDS011;38340;52.964;6.086;2023-03-21T05:01:01;55.13;;;25.25;;
52414;SDS011;38340;52.964;6.086;2023-03-21T05:03:30;61.17;;;25.77;;
52414;SDS011;38340;52.964;6.086;2023-03-21T05:05:58;54.03;;;24.48;;
52414;SDS011;38340;52.964;6.086;2023-03-21T05:08:24;53.20;;;23.65;;
52414;SDS011;38340;52.964;6.086;2023-03-21T05:10:53;48.85;;;24.35;;
52414;SDS011;38340;52.964;6.086;2023-03-21T05:13:19;44.22;;;22.13;;
52414;SDS011;38340;52.964;6.086;2023-03-21T05:15:45;52.40;;;23.02;;
52414;SDS011;38340;52.964;6.086;2023-03-21T05:18:10;44.25;;;23.05;;
52414;SDS011;38340;52.964;6.086;2023-03-21T05:20:39;39.55;;;21.45;;
52414;SDS011;38340;52.964;6.086;2023-03-21T05:23:09;48.95;;;23.70;;
52414;SDS011;38340;52.964;6.086;2023-03-21T05:25:38;51.75;;;24.02;;
52414;SDS011;38340;52.964;6.086;2023-03-21T05:28:04;47.95;;;24.25;;
52414;SDS011;38340;52.964;6.086;2023-03-21T05:30:31;57.33;;;25.85;;
52414;SDS011;38340;52.964;6.086;2023-03-21T05:32:57;49.45;;;26.15;;
52414;SDS011;38340;52.964;6.086;2023-03-21T05:35:24;59.20;;;26.00;;
52414;SDS011;38340;52.964;6.086;2023-03-21T05:37:50;61.90;;;26.90;;
52414;SDS011;38340;52.964;6.086;2023-03-21T05:40:17;53.75;;;27.38;;
52414;SDS011;38340;52.964;6.086;2023-03-21T05:42:44;54.22;;;26.55;;
52414;SDS011;38340;52.964;6.086;2023-03-21T05:45:11;54.05;;;26.88;;
52414;SDS011;38340;52.964;6.086;2023-03-21T05:47:37;52.05;;;26.90;;
52414;SDS011;38340;52.964;6.086;2023-03-21T05:50:03;55.60;;;26.40;;
52414;SDS011;38340;52.964;6.086;2023-03-21T05:52:29;58.67;;;27.35;;
52414;SDS011;38340;52.964;6.086;2023-03-21T05:54:54;59.83;;;28.02;;
52414;SDS011;38340;52.964;6.086;2023-03-21T05:57:20;52.33;;;27.25;;
52414;SDS011;38340;52.964;6.086;2023-03-21T05:59:46;49.70;;;27.52;;
52414;SDS011;38340;52.964;6.086;2023-03-21T06:02:12;56.10;;;29.27;;
52414;SDS011;38340;52.964;6.086;2023-03-21T06:04:38;60.47;;;29.35;;
52414;SDS011;38340;52.964;6.086;2023-03-21T06:07:03;54.67;;;28.30;;
52414;SDS011;38340;52.964;6.086;2023-03-21T06:09:29;61.03;;;29.95;;
52414;SDS011;38340;52.964;6.086;2023-03-21T06:11:55;59.40;;;29.63;;
52414;SDS011;38340;52.964;6.086;2023-03-21T06:14:22;50.85;;;27.60;;
52414;SDS011;38340;52.964;6.086;2023-03-21T06:16:48;50.15;;;28.23;;
52414;SDS011;38340;52.964;6.086;2023-03-21T06:19:14;53.05;;;28.58;;
52414;SDS011;38340;52.964;6.086;2023-03-21T06:21:41;57.05;;;28.77;;
52414;SDS011;38340;52.964;6.086;2023-03-21T06:24:07;56.22;;;28.63;;
52414;SDS011;38340;52.964;6.086;2023-03-21T06:26:33;53.80;;;27.95;;
52414;SDS011;38340;52.964;6.086;2023-03-21T06:28:59;52.33;;;27.95;;
52414;SDS011;38340;52.964;6.086;2023-03-21T06:31:25;60.47;;;28.98;;
52414;SDS011;38340;52.964;6.086;2023-03-21T06:33:50;53.33;;;27.60;;
52414;SDS011;38340;52.964;6.086;2023-03-21T06:36:17;66.72;;;29.48;;
52414;SDS011;38340;52.964;6.086;2023-03-21T06:38:43;53.67;;;27.70;;
52414;SDS011;38340;52.964;6.086;2023-03-21T06:41:11;50.88;;;26.40;;
52414;SDS011;38340;52.964;6.086;2023-03-21T06:43:37;89.65;;;29.90;;
52414;SDS011;38340;52.964;6.086;2023-03-21T06:46:02;43.83;;;24.70;;
52414;SDS011;38340;52.964;6.086;2023-03-21T06:48:29;83.40;;;28.05;;
52414;SDS011;38340;52.964;6.086;2023-03-21T06:50:55;66.72;;;25.90;;
52414;SDS011;38340;52.964;6.086;2023-03-21T06:53:21;50.70;;;23.35;;
52414;SDS011;38340;52.964;6.086;2023-03-21T06:55:52;49.45;;;24.08;;
52414;SDS011;38340;52.964;6.086;2023-03-21T06:58:19;45.92;;;25.67;;
52414;SDS011;38340;52.964;6.086;2023-03-21T07:00:45;46.33;;;28.27;;
52414;SDS011;38340;52.964;6.086;2023-03-21T07:03:11;44.20;;;23.27;;
52414;SDS011;38340;52.964;6.086;2023-03-21T07:05:38;44.50;;;26.10;;
52414;SDS011;38340;52.964;6.086;2023-03-21T07:08:04;45.20;;;25.38;;
52414;SDS011;38340;52.964;6.086;2023-03-21T07:10:32;446.38;;;92.78;;
52414;SDS011;38340;52.964;6.086;2023-03-21T07:12:58;42.08;;;21.35;;
52414;SDS011;38340;52.964;6.086;2023-03-21T07:15:24;244.25;;;43.47;;
52414;SDS011;38340;52.964;6.086;2023-03-21T07:17:50;78.35;;;27.40;;
52414;SDS011;38340;52.964;6.086;2023-03-21T07:20:16;82.68;;;26.88;;
52414;SDS011;38340;52.964;6.086;2023-03-21T07:22:42;32.38;;;19.52;;
52414;SDS011;38340;52.964;6.086;2023-03-21T07:25:09;101.85;;;31.67;;
52414;SDS011;38340;52.964;6.086;2023-03-21T07:27:35;31.15;;;19.92;;
52414;SDS011;38340;52.964;6.086;2023-03-21T07:30:02;57.13;;;21.67;;
52414;SDS011;38340;52.964;6.086;2023-03-21T07:32:31;80.30;;;25.77;;
52414;SDS011;38340;52.964;6.086;2023-03-21T07:34:58;31.08;;;18.25;;
52414;SDS011;38340;52.964;6.086;2023-03-21T07:37:25;30.95;;;18.88;;
52414;SDS011;38340;52.964;6.086;2023-03-21T07:39:51;47.15;;;19.40;;
52414;SDS011;38340;52.964;6.086;2023-03-21T07:42:17;30.52;;;19.20;;
52414;SDS011;38340;52.964;6.086;2023-03-21T07:44:43;27.08;;;18.67;;
52414;SDS011;38340;52.964;6.086;2023-03-21T07:47:09;29.70;;;19.35;;
52414;SDS011;38340;52.964;6.086;2023-03-21T07:49:35;29.73;;;18.58;;
52414;SDS011;38340;52.964;6.086;2023-03-21T07:52:01;29.00;;;18.63;;
52414;SDS011;38340;52.964;6.086;2023-03-21T07:54:28;30.80;;;19.33;;
52414;SDS011;38340;52.964;6.086;2023-03-21T07:56:54;26.10;;;17.10;;
52414;SDS011;38340;52.964;6.086;2023-03-21T07:59:20;24.77;;;18.02;;
52414;SDS011;38340;52.964;6.086;2023-03-21T08:01:46;25.88;;;16.95;;
52414;SDS011;38340;52.964;6.086;2023-03-21T08:04:12;27.35;;;18.55;;
52414;SDS011;38340;52.964;6.086;2023-03-21T08:06:38;24.92;;;17.27;;
52414;SDS011;38340;52.964;6.086;2023-03-21T08:09:04;49.10;;;27.67;;
52414;SDS011;38340;52.964;6.086;2023-03-21T08:11:30;40.15;;;27.58;;
52414;SDS011;38340;52.964;6.086;2023-03-21T08:13:56;32.17;;;22.10;;
52414;SDS011;38340;52.964;6.086;2023-03-21T08:16:22;41.17;;;27.35;;
52414;SDS011;38340;52.964;6.086;2023-03-21T08:18:48;55.60;;;31.52;;
52414;SDS011;38340;52.964;6.086;2023-03-21T08:21:14;35.35;;;23.58;;
52414;SDS011;38340;52.964;6.086;2023-03-21T08:23:40;34.90;;;21.33;;
52414;SDS011;38340;52.964;6.086;2023-03-21T08:26:06;44.08;;;28.35;;
52414;SDS011;38340;52.964;6.086;2023-03-21T08:28:32;45.70;;;29.33;;
52414;SDS011;38340;52.964;6.086;2023-03-21T08:30:57;36.28;;;25.58;;
52414;SDS011;38340;52.964;6.086;2023-03-21T08:33:23;43.58;;;27.40;;
52414;SDS011;38340;52.964;6.086;2023-03-21T08:35:49;43.58;;;26.80;;
52414;SDS011;38340;52.964;6.086;2023-03-21T08:38:15;39.75;;;25.33;;
52414;SDS011;38340;52.964;6.086;2023-03-21T08:40:41;42.22;;;27.40;;
52414;SDS011;38340;52.964;6.086;2023-03-21T08:43:06;44.15;;;27.10;;
52414;SDS011;38340;52.964;6.086;2023-03-21T08:45:32;37.50;;;24.00;;
52414;SDS011;38340;52.964;6.086;2023-03-21T08:47:58;39.05;;;24.75;;
52414;SDS011;38340;52.964;6.086;2023-03-21T08:50:24;38.42;;;24.73;;
52414;SDS011;38340;52.964;6.086;2023-03-21T08:52:51;37.20;;;25.85;;
52414;SDS011;38340;52.964;6.086;2023-03-21T08:55:18;43.67;;;27.42;;
52414;SDS011;38340;52.964;6.086;2023-03-21T08:57:44;39.90;;;25.67;;
52414;SDS011;38340;52.964;6.086;2023-03-21T09:00:11;41.55;;;26.17;;
52414;SDS011;38340;52.964;6.086;2023-03-21T09:02:39;40.65;;;26.92;;
52414;SDS011;38340;52.964;6.086;2023-03-21T09:05:06;42.83;;;26.52;;
52414;SDS011;38340;52.964;6.086;2023-03-21T09:07:32;41.63;;;26.30;;
52414;SDS011;38340;52.964;6.086;2023-03-21T09:10:01;34.97;;;24.50;;
52414;SDS011;38340;52.964;6.086;2023-03-21T09:12:27;44.45;;;27.55;;
52414;SDS011;38340;52.964;6.086;2023-03-21T09:14:53;43.35;;;26.70;;
52414;SDS011;38340;52.964;6.086;2023-03-21T09:17:18;39.92;;;24.67;;
52414;SDS011;38340;52.964;6.086;2023-03-21T09:19:44;42.28;;;26.02;;
52414;SDS011;38340;52.964;6.086;2023-03-21T09:22:11;39.13;;;23.77;;
52414;SDS011;38340;52.964;6.086;2023-03-21T09:24:44;40.28;;;25.13;;
52414;SDS011;38340;52.964;6.086;2023-03-21T09:27:17;39.58;;;23.05;;
52414;SDS011;38340;52.964;6.086;2023-03-21T09:29:46;34.97;;;23.50;;
52414;SDS011;38340;52.964;6.086;2023-03-21T09:32:15;40.63;;;24.33;;
52414;SDS011;38340;52.964;6.086;2023-03-21T09:34:42;42.17;;;25.10;;
52414;SDS011;38340;52.964;6.086;2023-03-21T09:37:08;39.25;;;24.17;;
52414;SDS011;38340;52.964;6.086;2023-03-21T09:39:35;36.45;;;23.77;;
52414;SDS011;38340;52.964;6.086;2023-03-21T09:45:05;34.92;;;23.45;;
52414;SDS011;38340;52.964;6.086;2023-03-21T09:47:42;35.13;;;24.30;;
52414;SDS011;38340;52.964;6.086;2023-03-21T09:50:15;34.50;;;21.70;;
52414;SDS011;38340;52.964;6.086;2023-03-21T09:52:54;34.28;;;22.60;;
52414;SDS011;38340;52.964;6.086;2023-03-21T09:55:23;43.00;;;26.70;;
52414;SDS011;38340;52.964;6.086;2023-03-21T10:00:48;30.60;;;21.35;;
52414;SDS011;38340;52.964;6.086;2023-03-21T10:05:49;26.33;;;18.65;;
52414;SDS011;38340;52.964;6.086;2023-03-21T10:08:36;29.02;;;19.20;;
52414;SDS011;38340;52.964;6.086;2023-03-21T10:11:12;26.17;;;18.17;;
52414;SDS011;38340;52.964;6.086;2023-03-21T10:13:45;27.52;;;18.50;;
52414;SDS011;38340;52.964;6.086;2023-03-21T10:16:26;26.20;;;18.83;;
52414;SDS011;38340;52.964;6.086;2023-03-21T10:18:54;26.15;;;19.00;;
52414;SDS011;38340;52.964;6.086;2023-03-21T10:21:21;29.73;;;17.23;;
52414;SDS011;38340;52.964;6.086;2023-03-21T10:23:49;24.70;;;18.38;;
52414;SDS011;38340;52.964;6.086;2023-03-21T10:26:17;28.33;;;17.60;;
52414;SDS011;38340;52.964;6.086;2023-03-21T10:28:45;29.38;;;18.77;;
52414;SDS011;38340;52.964;6.086;2023-03-21T10:31:19;26.05;;;16.80;;
52414;SDS011;38340;52.964;6.086;2023-03-21T10:33:49;25.13;;;17.20;;
52414;SDS011;38340;52.964;6.086;2023-03-21T10:36:19;24.70;;;17.42;;
52414;SDS011;38340;52.964;6.086;2023-03-21T10:38:51;29.02;;;18.05;;
52414;SDS011;38340;52.964;6.086;2023-03-21T10:41:26;26.58;;;18.13;;
52414;SDS011;38340;52.964;6.086;2023-03-21T10:44:09;27.10;;;18.52;;
52414;SDS011;38340;52.964;6.086;2023-03-21T10:46:38;24.40;;;17.70;;
52414;SDS011;38340;52.964;6.086;2023-03-21T10:49:18;22.92;;;17.48;;
52414;SDS011;38340;52.964;6.086;2023-03-21T10:51:45;21.33;;;16.15;;
52414;SDS011;38340;52.964;6.086;2023-03-21T10:54:15;23.67;;;16.25;;
52414;SDS011;38340;52.964;6.086;2023-03-21T10:56:46;21.27;;;15.05;;
52414;SDS011;38340;52.964;6.086;2023-03-21T10:59:38;18.25;;;13.95;;
52414;SDS011;38340;52.964;6.086;2023-03-21T11:02:27;19.05;;;13.90;;
52414;SDS011;38340;52.964;6.086;2023-03-21T11:04:57;22.70;;;14.63;;
52414;SDS011;38340;52.964;6.086;2023-03-21T11:07:32;19.20;;;14.68;;
52414;SDS011;38340;52.964;6.086;2023-03-21T11:10:08;20.88;;;13.90;;
52414;SDS011;38340;52.964;6.086;2023-03-21T11:12:39;21.38;;;15.18;;
52414;SDS011;38340;52.964;6.086;2023-03-21T11:15:23;20.52;;;14.30;;
52414;SDS011;38340;52.964;6.086;2023-03-21T11:18:18;24.13;;;13.45;;
52414;SDS011;38340;52.964;6.086;2023-03-21T11:20:53;17.45;;;13.48;;
52414;SDS011;38340;52.964;6.086;2023-03-21T11:23:25;18.05;;;13.13;;
52414;SDS011;38340;52.964;6.086;2023-03-21T11:25:53;21.73;;;14.40;;
52414;SDS011;38340;52.964;6.086;2023-03-21T11:28:21;16.60;;;13.10;;
52414;SDS011;38340;52.964;6.086;2023-03-21T11:30:48;22.20;;;14.02;;
52414;SDS011;38340;52.964;6.086;2023-03-21T11:33:18;18.52;;;13.95;;
52414;SDS011;38340;52.964;6.086;2023-03-21T11:35:44;19.50;;;13.82;;
52414;SDS011;38340;52.964;6.086;2023-03-21T11:38:28;18.60;;;13.80;;
52414;SDS011;38340;52.964;6.086;2023-03-21T11:41:01;34.63;;;13.32;;
52414;SDS011;38340;52.964;6.086;2023-03-21T11:43:33;15.63;;;11.85;;
52414;SDS011;38340;52.964;6.086;2023-03-21T11:48:37;15.02;;;12.27;;
52414;SDS011;38340;52.964;6.086;2023-03-21T11:51:03;15.32;;;11.68;;
52414;SDS011;38340;52.964;6.086;2023-03-21T11:56:37;17.45;;;12.68;;
52414;SDS011;38340;52.964;6.086;2023-03-21T12:15:53;14.93;;;11.73;;
52414;SDS011;38340;52.964;6.086;2023-03-21T12:21:14;17.67;;;10.98;;
52414;SDS011;38340;52.964;6.086;2023-03-21T12:26:18;19.13;;;12.70;;
52414;SDS011;38340;52.964;6.086;2023-03-21T12:34:32;14.88;;;12.60;;
52414;SDS011;38340;52.964;6.086;2023-03-21T12:40:03;15.55;;;12.70;;
52414;SDS011;38340;52.964;6.086;2023-03-21T12:45:30;20.30;;;13.98;;
52414;SDS011;38340;52.964;6.086;2023-03-21T12:48:10;23.92;;;13.68;;
52414;SDS011;38340;52.964;6.086;2023-03-21T12:50:41;17.23;;;12.35;;
52414;SDS011;38340;52.964;6.086;2023-03-21T12:56:00;16.90;;;12.77;;
52414;SDS011;38340;52.964;6.086;2023-03-21T12:58:33;18.30;;;12.60;;
52414;SDS011;38340;52.964;6.086;2023-03-21T13:01:08;16.25;;;12.15;;
52414;SDS011;38340;52.964;6.086;2023-03-21T13:03:39;17.88;;;13.30;;
52414;SDS011;38340;52.964;6.086;2023-03-21T13:06:09;20.70;;;13.45;;
52414;SDS011;38340;52.964;6.086;2023-03-21T13:11:22;18.42;;;12.73;;
52414;SDS011;38340;52.964;6.086;2023-03-21T13:14:00;20.00;;;13.57;;
52414;SDS011;38340;52.964;6.086;2023-03-21T13:16:48;17.05;;;13.38;;
52414;SDS011;38340;52.964;6.086;2023-03-21T13:22:09;17.08;;;13.27;;
52414;SDS011;38340;52.964;6.086;2023-03-21T13:24:48;23.25;;;14.18;;
52414;SDS011;38340;52.964;6.086;2023-03-21T13:27:34;20.52;;;14.23;;
52414;SDS011;38340;52.964;6.086;2023-03-21T13:32:42;14.85;;;13.13;;
52414;SDS011;38340;52.964;6.086;2023-03-21T13:40:46;18.63;;;14.25;;
52414;SDS011;38340;52.964;6.086;2023-03-21T13:46:33;19.08;;;15.00;;
52414;SDS011;38340;52.964;6.086;2023-03-21T13:49:01;19.70;;;15.65;;
52414;SDS011;38340;52.964;6.086;2023-03-21T13:51:42;19.25;;;14.18;;
52414;SDS011;38340;52.964;6.086;2023-03-21T13:59:09;19.02;;;14.13;;
52414;SDS011;38340;52.964;6.086;2023-03-21T14:01:39;19.42;;;13.90;;
52414;SDS011;38340;52.964;6.086;2023-03-21T14:06:56;19.08;;;16.60;;
52414;SDS011;38340;52.964;6.086;2023-03-21T14:09:35;24.42;;;18.10;;
52414;SDS011;38340;52.964;6.086;2023-03-21T14:12:06;18.30;;;13.65;;
52414;SDS011;38340;52.964;6.086;2023-03-21T14:14:42;23.75;;;18.48;;
52414;SDS011;38340;52.964;6.086;2023-03-21T14:17:27;20.23;;;17.00;;
52414;SDS011;38340;52.964;6.086;2023-03-21T14:19:59;29.08;;;20.80;;
52414;SDS011;38340;52.964;6.086;2023-03-21T14:22:46;19.50;;;13.82;;
52414;SDS011;38340;52.964;6.086;2023-03-21T14:25:13;22.50;;;16.05;;
52414;SDS011;38340;52.964;6.086;2023-03-21T14:27:41;20.08;;;15.75;;
52414;SDS011;38340;52.964;6.086;2023-03-21T14:30:53;19.73;;;15.48;;
52414;SDS011;38340;52.964;6.086;2023-03-21T14:35:36;19.67;;;15.50;;
52414;SDS011;38340;52.964;6.086;2023-03-21T14:38:05;20.95;;;15.32;;
52414;SDS011;38340;52.964;6.086;2023-03-21T14:40:33;16.05;;;14.48;;
52414;SDS011;38340;52.964;6.086;2023-03-21T14:43:03;19.85;;;15.10;;
52414;SDS011;38340;52.964;6.086;2023-03-21T14:45:30;16.73;;;14.57;;
52414;SDS011;38340;52.964;6.086;2023-03-21T14:48:02;19.42;;;14.52;;
52414;SDS011;38340;52.964;6.086;2023-03-21T14:50:33;23.33;;;15.35;;
52414;SDS011;38340;52.964;6.086;2023-03-21T14:53:04;20.77;;;15.18;;
52414;SDS011;38340;52.964;6.086;2023-03-21T14:55:31;18.02;;;14.40;;
52414;SDS011;38340;52.964;6.086;2023-03-21T14:57:57;17.90;;;15.95;;
52414;SDS011;38340;52.964;6.086;2023-03-21T15:00:27;18.70;;;15.38;;
52414;SDS011;38340;52.964;6.086;2023-03-21T15:02:54;21.85;;;16.02;;
52414;SDS011;38340;52.964;6.086;2023-03-21T15:05:33;19.45;;;17.45;;
52414;SDS011;38340;52.964;6.086;2023-03-21T15:08:02;21.63;;;16.80;;
52414;SDS011;38340;52.964;6.086;2023-03-21T15:10:33;20.88;;;15.77;;
52414;SDS011;38340;52.964;6.086;2023-03-21T15:13:00;22.45;;;17.52;;
52414;SDS011;38340;52.964;6.086;2023-03-21T15:15:36;20.83;;;16.45;;
52414;SDS011;38340;52.964;6.086;2023-03-21T15:18:04;18.90;;;16.60;;
52414;SDS011;38340;52.964;6.086;2023-03-21T15:20:31;19.75;;;15.35;;
52414;SDS011;38340;52.964;6.086;2023-03-21T15:23:02;19.88;;;14.88;;
52414;SDS011;38340;52.964;6.086;2023-03-21T15:25:34;23.98;;;16.63;;
52414;SDS011;38340;52.964;6.086;2023-03-21T15:28:00;22.23;;;15.60;;
52414;SDS011;38340;52.964;6.086;2023-03-21T15:30:27;24.13;;;17.05;;
52414;SDS011;38340;52.964;6.086;2023-03-21T15:32:55;20.20;;;15.63;;
52414;SDS011;38340;52.964;6.086;2023-03-21T15:35:27;17.95;;;14.95;;
52414;SDS011;38340;52.964;6.086;2023-03-21T15:40:27;16.65;;;14.07;;
52414;SDS011;38340;52.964;6.086;2023-03-21T15:43:14;21.13;;;16.48;;
52414;SDS011;38340;52.964;6.086;2023-03-21T15:45:46;19.70;;;16.67;;
52414;SDS011;38340;52.964;6.086;2023-03-21T15:48:20;21.80;;;16.05;;
52414;SDS011;38340;52.964;6.086;2023-03-21T15:51:04;17.90;;;14.88;;
52414;SDS011;38340;52.964;6.086;2023-03-21T15:53:32;20.83;;;16.13;;
52414;SDS011;38340;52.964;6.086;2023-03-21T15:55:59;22.88;;;17.10;;
52414;SDS011;38340;52.964;6.086;2023-03-21T15:58:28;22.33;;;16.95;;
52414;SDS011;38340;52.964;6.086;2023-03-21T16:01:03;18.10;;;15.65;;
52414;SDS011;38340;52.964;6.086;2023-03-21T16:03:34;19.30;;;16.70;;
52414;SDS011;38340;52.964;6.086;2023-03-21T16:06:06;23.88;;;18.85;;
52414;SDS011;38340;52.964;6.086;2023-03-21T16:11:24;21.92;;;16.95;;
52414;SDS011;38340;52.964;6.086;2023-03-21T16:13:52;20.15;;;16.27;;
52414;SDS011;38340;52.964;6.086;2023-03-21T16:16:26;20.23;;;17.63;;
52414;SDS011;38340;52.964;6.086;2023-03-21T16:18:54;24.73;;;17.23;;
52414;SDS011;38340;52.964;6.086;2023-03-21T16:21:22;24.02;;;19.63;;
52414;SDS011;38340;52.964;6.086;2023-03-21T16:23:55;22.65;;;19.92;;
52414;SDS011;38340;52.964;6.086;2023-03-21T16:26:23;25.90;;;19.48;;
52414;SDS011;38340;52.964;6.086;2023-03-21T16:28:53;20.15;;;16.50;;
52414;SDS011;38340;52.964;6.086;2023-03-21T16:31:23;25.20;;;18.42;;
52414;SDS011;38340;52.964;6.086;2023-03-21T16:33:53;25.10;;;18.45;;
52414;SDS011;38340;52.964;6.086;2023-03-21T16:36:24;23.17;;;17.80;;